Observation data for Saint Lawrence on 01/21/2019      Previous  Date  Next       Current Mesonet Observations  Soil Data  Daily Summary Page  Observations in Plain Language
KST1 210600Z 19010KT 07/M01 A3007 RMK A01 T00651014  RH  058%=      5-min Rain = 0
KST1 210605Z 19009KT 06/M01 A3007 RMK A01 T00631014  RH  058%=      5-min Rain = 0
KST1 210610Z 18009KT 06/M01 A3007 RMK A01 T00611014  RH  059%=      5-min Rain = 0
KST1 210615Z 18009KT 06/M01 A3007 RMK A01 T00581014  RH  060%=      5-min Rain = 0
KST1 210620Z 18009KT 06/M01 A3007 RMK A01 T00571014  RH  061%=      5-min Rain = 0
KST1 210625Z 18010KT 06/M02 A3007 RMK A01 T00571015  RH  061%=      5-min Rain = 0
KST1 210630Z 18010KT 06/M02 A3007 RMK A01 T00561016  RH  060%=      5-min Rain = 0
KST1 210635Z 18010KT 05/M02 A3007 RMK A01 T00541016  RH  061%=      5-min Rain = 0
KST1 210640Z 18010KT 05/M02 A3007 RMK A01 T00531016  RH  061%=      5-min Rain = 0
KST1 210645Z 17010KT 05/M02 A3006 RMK A01 T00531017  RH  061%=      5-min Rain = 0
KST1 210650Z 17011KT 05/M02 A3006 RMK A01 T00531017  RH  061%=      5-min Rain = 0
KST1 210655Z 17010KT 05/M02 A3006 RMK A01 T00521017  RH  061%=      5-min Rain = 0
KST1 210700Z 17010KT 05/M02 A3006 RMK A01 T00531018  RH  061%=      5-min Rain = 0
KST1 210705Z 17011KT 05/M02 A3005 RMK A01 T00541018  RH  061%=      5-min Rain = 0
KST1 210710Z 17012KT 06/M02 A3005 RMK A01 T00571018  RH  059%=      5-min Rain = 0
KST1 210715Z 17012KT 06/M02 A3005 RMK A01 T00571018  RH  059%=      5-min Rain = 0
KST1 210720Z 18011KT 06/M02 A3005 RMK A01 T00591018  RH  058%=      5-min Rain = 0
KST1 210725Z 18011KT 06/M02 A3005 RMK A01 T00591019  RH  058%=      5-min Rain = 0
KST1 210730Z 18012KT 06/M02 A3004 RMK A01 T00591019  RH  058%=      5-min Rain = 0
KST1 210735Z 18012KT 06/M02 A3004 RMK A01 T00591019  RH  058%=      5-min Rain = 0
KST1 210740Z 18012KT 06/M02 A3004 RMK A01 T00591019  RH  058%=      5-min Rain = 0
KST1 210745Z 18012KT 06/M02 A3004 RMK A01 T00591020  RH  058%=      5-min Rain = 0
KST1 210750Z 18013KT 06/M02 A3004 RMK A01 T00601020  RH  057%=      5-min Rain = 0
KST1 210755Z 18013KT 06/M02 A3004 RMK A01 T00611020  RH  057%=      5-min Rain = 0
KST1 210800Z 18012KT 06/M02 A3004 RMK A01 T00601020  RH  057%=      5-min Rain = 0
KST1 210805Z 18012KT 06/M02 A3004 RMK A01 T00581020  RH  058%=      5-min Rain = 0
KST1 210810Z 18012KT 06/M02 A3004 RMK A01 T00571021  RH  058%=      5-min Rain = 0
KST1 210815Z 18012KT 06/M02 A3003 RMK A01 T00561021  RH  058%=      5-min Rain = 0
KST1 210820Z 18012KT 06/M02 A3003 RMK A01 T00561021  RH  058%=      5-min Rain = 0
KST1 210825Z 18011KT 06/M02 A3003 RMK A01 T00551021  RH  058%=      5-min Rain = 0
KST1 210830Z 18011KT 05/M02 A3003 RMK A01 T00541022  RH  059%=      5-min Rain = 0
KST1 210835Z 18012KT 05/M02 A3003 RMK A01 T00531022  RH  059%=      5-min Rain = 0
KST1 210840Z 18012KT 05/M02 A3002 RMK A01 T00531022  RH  059%=      5-min Rain = 0
KST1 210845Z 18012KT 05/M02 A3002 RMK A01 T00541022  RH  058%=      5-min Rain = 0
KST1 210850Z 18013KT 06/M02 A3002 RMK A01 T00551022  RH  058%=      5-min Rain = 0
KST1 210855Z 18014KT 06/M02 A3002 RMK A01 T00571023  RH  057%=      5-min Rain = 0
KST1 210900Z 18014KT 06/M02 A3002 RMK A01 T00571023  RH  057%=      5-min Rain = 0
KST1 210905Z 18014KT 06/M02 A3001 RMK A01 T00571023  RH  057%=      5-min Rain = 0
KST1 210910Z 18015KT 06/M02 A3001 RMK A01 T00571023  RH  057%=      5-min Rain = 0
KST1 210915Z 17015KT 06/M02 A3001 RMK A01 T00591024  RH  056%=      5-min Rain = 0
KST1 210920Z 18016KT 06/M02 A3001 RMK A01 T00601024  RH  055%=      5-min Rain = 0
KST1 210925Z 18015KT 06/M02 A3001 RMK A01 T00601024  RH  055%=      5-min Rain = 0
KST1 210930Z 18014KT 06/M02 A3001 RMK A01 T00591024  RH  056%=      5-min Rain = 0
KST1 210935Z 18014KT 06/M02 A3001 RMK A01 T00571024  RH  057%=      5-min Rain = 0
KST1 210940Z 18014KT 06/M02 A30 RMK A01 T00571024  RH  057%=      5-min Rain = 0
KST1 210945Z 18015G20KT 06/M02 A30 RMK A01 T00571024  RH  057%=      5-min Rain = 0
KST1 210950Z 18016G21KT 06/M02 A30 RMK A01 T00591024  RH  056%=      5-min Rain = 0
KST1 210955Z 18017KT 06/M02 A2999 RMK A01 T00611024  RH  055%=      5-min Rain = 0
KST1 211000Z 18017KT 06/M02 A2999 RMK A01 T00611024  RH  055%=      5-min Rain = 0
KST1 211005Z 18017KT 06/M03 A2999 RMK A01 T00621025  RH  054%=      5-min Rain = 0
KST1 211010Z 18017KT 06/M03 A2999 RMK A01 T00621025  RH  054%=      5-min Rain = 0
KST1 211015Z 18016KT 06/M03 A2999 RMK A01 T00611025  RH  054%=      5-min Rain = 0
KST1 211020Z 18016KT 06/M03 A2999 RMK A01 T00601025  RH  055%=      5-min Rain = 0
KST1 211025Z 18016KT 06/M03 A2999 RMK A01 T00601025  RH  055%=      5-min Rain = 0
KST1 211030Z 18015KT 06/M03 A2998 RMK A01 T00591025  RH  055%=      5-min Rain = 0
KST1 211035Z 18015KT 06/M03 A2998 RMK A01 T00581025  RH  056%=      5-min Rain = 0
KST1 211040Z 18014KT 06/M03 A2998 RMK A01 T00571025  RH  056%=      5-min Rain = 0
KST1 211045Z 17016KT 06/M03 A2998 RMK A01 T00571025  RH  056%=      5-min Rain = 0
KST1 211050Z 17016KT 06/M03 A2998 RMK A01 T00581025  RH  056%=      5-min Rain = 0
KST1 211055Z 18016KT 06/M03 A2998 RMK A01 T00581025  RH  056%=      5-min Rain = 0
KST1 211100Z 18015KT 06/M03 A2998 RMK A01 T00571025  RH  056%=      5-min Rain = 0
KST1 211105Z 18015KT 06/M03 A2998 RMK A01 T00581025  RH  056%=      5-min Rain = 0
KST1 211110Z 18015KT 06/M03 A2998 RMK A01 T00591025  RH  055%=      5-min Rain = 0
KST1 211115Z 18012G18KT 06/M03 A2998 RMK A01 T00581025  RH  056%=      5-min Rain = 0
KST1 211120Z 19012KT 06/M03 A2999 RMK A01 T00591025  RH  055%=      5-min Rain = 0
KST1 211125Z 19012KT 06/M03 A2999 RMK A01 T00581025  RH  056%=      5-min Rain = 0
KST1 211130Z 19012KT 06/M03 A2998 RMK A01 T00571025  RH  056%=      5-min Rain = 0
KST1 211135Z 18013KT 06/M03 A2998 RMK A01 T00551025  RH  057%=      5-min Rain = 0
KST1 211140Z 18012KT 05/M03 A2998 RMK A01 T00541025  RH  057%=      5-min Rain = 0
KST1 211145Z 18013KT 05/M03 A2998 RMK A01 T00531025  RH  058%=      5-min Rain = 0
KST1 211150Z 18012KT 05/M03 A2998 RMK A01 T00531026  RH  057%=      5-min Rain = 0
KST1 211155Z 18013KT 05/M03 A2997 RMK A01 T00531026  RH  058%=      5-min Rain = 0
KST1 211200Z 18014KT 05/M03 A2997 RMK A01 T00521025  RH  058%=      5-min Rain = 0
KST1 211205Z 18014KT 05/M03 A2997 RMK A01 T00521025  RH  058%=      5-min Rain = 0
KST1 211210Z 18014KT 05/M03 A2997 RMK A01 T00521025  RH  058%=      5-min Rain = 0
KST1 211215Z 18014KT 05/M03 A2997 RMK A01 T00521026  RH  058%=      5-min Rain = 0
KST1 211220Z 18014G20KT 05/M03 A2996 RMK A01 T00521025  RH  058%=      5-min Rain = 0
KST1 211225Z 18015KT 05/M03 A2996 RMK A01 T00531025  RH  058%=      5-min Rain = 0
KST1 211230Z 18015KT 05/M03 A2996 RMK A01 T00531026  RH  058%=      5-min Rain = 0
KST1 211235Z 17015KT 05/M03 A2996 RMK A01 T00521025  RH  058%=      5-min Rain = 0
KST1 211240Z 17014KT 05/M03 A2996 RMK A01 T00521025  RH  058%=      5-min Rain = 0
KST1 211245Z 17013KT 05/M03 A2996 RMK A01 T00501025  RH  059%=      5-min Rain = 0
KST1 211250Z 18013KT 05/M03 A2996 RMK A01 T00491025  RH  059%=      5-min Rain = 0
KST1 211255Z 18012KT 05/M03 A2996 RMK A01 T00491025  RH  060%=      5-min Rain = 0
KST1 211300Z 18013KT 05/M02 A2997 RMK A01 T00481024  RH  060%=      5-min Rain = 0
KST1 211305Z 18013KT 05/M02 A2997 RMK A01 T00501024  RH  059%=      5-min Rain = 0
KST1 211310Z 18013KT 05/M02 A2997 RMK A01 T00501024  RH  059%=      5-min Rain = 0
KST1 211315Z 18014KT 05/M02 A2997 RMK A01 T00501024  RH  059%=      5-min Rain = 0
KST1 211320Z 18014KT 05/M02 A2997 RMK A01 T00501024  RH  060%=      5-min Rain = 0
KST1 211325Z 18016KT 05/M02 A2996 RMK A01 T00501024  RH  060%=      5-min Rain = 0
KST1 211330Z 18016KT 05/M02 A2996 RMK A01 T00501023  RH  060%=      5-min Rain = 0
KST1 211335Z 18015KT 05/M02 A2996 RMK A01 T00501023  RH  060%=      5-min Rain = 0
KST1 211340Z 18015G20KT 05/M02 A2996 RMK A01 T00501023  RH  060%=      5-min Rain = 0
KST1 211345Z 18015KT 05/M02 A2997 RMK A01 T00501023  RH  060%=      5-min Rain = 0
KST1 211350Z 18016KT 05/M02 A2997 RMK A01 T00501023  RH  060%=      5-min Rain = 0
KST1 211355Z 17015KT 05/M02 A2997 RMK A01 T00481023  RH  061%=      5-min Rain = 0
KST1 211400Z 18015KT 05/M02 A2997 RMK A01 T00491023  RH  061%=      5-min Rain = 0
KST1 211405Z 18014KT 05/M02 A2997 RMK A01 T00481023  RH  061%=      5-min Rain = 0
KST1 211410Z 18014KT 05/M02 A2997 RMK A01 T00471022  RH  061%=      5-min Rain = 0
KST1 211415Z 18013KT 05/M02 A2997 RMK A01 T00461022  RH  062%=      5-min Rain = 0
KST1 211420Z 18014KT 05/M02 A2997 RMK A01 T00471021  RH  062%=      5-min Rain = 0
KST1 211425Z 18014KT 05/M02 A2997 RMK A01 T00481021  RH  062%=      5-min Rain = 0
KST1 211430Z 18014KT 05/M02 A2997 RMK A01 T00491020  RH  061%=      5-min Rain = 0
KST1 211435Z 18014KT 05/M02 A2997 RMK A01 T00511020  RH  061%=      5-min Rain = 0
KST1 211440Z 18014G19KT 05/M02 A2997 RMK A01 T00521019  RH  061%=      5-min Rain = 0
KST1 211445Z 18014KT 05/M02 A2997 RMK A01 T00541019  RH  060%=      5-min Rain = 0
KST1 211450Z 18014KT 06/M02 A2997 RMK A01 T00551018  RH  060%=      5-min Rain = 0
KST1 211455Z 18014KT 06/M02 A2997 RMK A01 T00571018  RH  059%=      5-min Rain = 0
KST1 211500Z 18014KT 06/M02 A2997 RMK A01 T00581017  RH  059%=      5-min Rain = 0
KST1 211505Z 18014KT 06/M02 A2997 RMK A01 T00601016  RH  059%=      5-min Rain = 0
KST1 211510Z 18014G19KT 06/M02 A2997 RMK A01 T00641015  RH  058%=      5-min Rain = 0
KST1 211515Z 18014KT 07/M01 A2997 RMK A01 T00681013  RH  057%=      5-min Rain = 0
KST1 211520Z 18014G19KT 07/M01 A2997 RMK A01 T00691014  RH  056%=      5-min Rain = 0
KST1 211525Z 18015G21KT 07/M01 A2997 RMK A01 T00711014  RH  055%=      5-min Rain = 0
KST1 211530Z 19015KT 07/M01 A2997 RMK A01 T00741014  RH  054%=      5-min Rain = 0
KST1 211535Z 19015G20KT 08/M01 A2997 RMK A01 T00761013  RH  054%=      5-min Rain = 0
KST1 211540Z 19017KT 08/M01 A2997 RMK A01 T00801013  RH  053%=      5-min Rain = 0
KST1 211545Z 19016G21KT 08/M01 A2997 RMK A01 T00831012  RH  052%=      5-min Rain = 0
KST1 211550Z 19017G22KT 09/M01 A2997 RMK A01 T00871010  RH  051%=      5-min Rain = 0
KST1 211555Z 19018KT 09/M01 A2997 RMK A01 T00901011  RH  050%=      5-min Rain = 0
KST1 211600Z 19019G24KT 09/M01 A2997 RMK A01 T00921013  RH  049%=      5-min Rain = 0
KST1 211605Z 19018KT 10/M01 A2997 RMK A01 T00961011  RH  047%=      5-min Rain = 0
KST1 211610Z 19016G21KT 10/M01 A2997 RMK A01 T01001011  RH  047%=      5-min Rain = 0
KST1 211615Z 18019G24KT 10/M01 A2997 RMK A01 T01041010  RH  046%=      5-min Rain = 0
KST1 211620Z 19019G24KT 11/M01 A2997 RMK A01 T01061011  RH  045%=      5-min Rain = 0
KST1 211625Z 18020KT 11/M01 A2997 RMK A01 T01091011  RH  044%=      5-min Rain = 0
KST1 211630Z 18018G23KT 11/M01 A2997 RMK A01 T01121011  RH  043%=      5-min Rain = 0
KST1 211635Z 18019KT 11/M01 A2997 RMK A01 T01141011  RH  042%=      5-min Rain = 0
KST1 211640Z 18018G23KT 12/M01 A2996 RMK A01 T01191009  RH  041%=      5-min Rain = 0
KST1 211645Z 18018G23KT 12/M01 A2996 RMK A01 T01221009  RH  041%=      5-min Rain = 0
KST1 211650Z 18018G23KT 12/M01 A2996 RMK A01 T01221010  RH  040%=      5-min Rain = 0
KST1 211655Z 18020KT 13/M01 A2996 RMK A01 T01251011  RH  039%=      5-min Rain = 0
KST1 211700Z 18022G27KT 13/M01 A2996 RMK A01 T01311012  RH  038%=      5-min Rain = 0
KST1 211705Z 19018G23KT 13/M01 A2996 RMK A01 T01331012  RH  037%=      5-min Rain = 0
KST1 211710Z 19019G26KT 14/M01 A2996 RMK A01 T01371013  RH  036%=      5-min Rain = 0
KST1 211715Z 19020KT 14/M01 A2996 RMK A01 T01391014  RH  035%=      5-min Rain = 0
KST1 211720Z 18018G24KT 14/M01 A2996 RMK A01 T01401013  RH  035%=      5-min Rain = 0
KST1 211725Z 18017G23KT 14/M01 A2996 RMK A01 T01421014  RH  035%=      5-min Rain = 0
KST1 211730Z 18018G23KT 14/M01 A2995 RMK A01 T01421014  RH  035%=      5-min Rain = 0
KST1 211735Z 18020G26KT 15/M01 A2995 RMK A01 T01451014  RH  034%=      5-min Rain = 0
KST1 211740Z 18020KT 15/M01 A2995 RMK A01 T01511013  RH  033%=      5-min Rain = 0
KST1 211745Z 19020G27KT 15/M02 A2995 RMK A01 T01541015  RH  032%=      5-min Rain = 0
KST1 211750Z 19020KT 15/M02 A2995 RMK A01 T01541017  RH  031%=      5-min Rain = 0
KST1 211755Z 19019G24KT 16/M02 A2995 RMK A01 T01571016  RH  031%=      5-min Rain = 0
KST1 211800Z 19020G26KT 16/M02 A2995 RMK A01 T01581020  RH  030%=      5-min Rain = 0
KST1 211805Z 19019G25KT 16/M02 A2994 RMK A01 T01591018  RH  030%=      5-min Rain = 0
KST1 211810Z 18020G25KT 16/M02 A2994 RMK A01 T01631016  RH  030%=      5-min Rain = 0
KST1 211815Z 18019G24KT 17/M02 A2994 RMK A01 T01651017  RH  029%=      5-min Rain = 0
KST1 211820Z 19018G25KT 16/M02 A2994 RMK A01 T01641017  RH  029%=      5-min Rain = 0
KST1 211825Z 18021G26KT 16/M02 A2994 RMK A01 T01641016  RH  030%=      5-min Rain = 0
KST1 211830Z 18022G28KT 16/M02 A2993 RMK A01 T01641018  RH  029%=      5-min Rain = 0
KST1 211835Z 18021KT 16/M02 A2993 RMK A01 T01631017  RH  029%=      5-min Rain = 0
KST1 211840Z 18020G25KT 17/M02 A2993 RMK A01 T01681015  RH  029%=      5-min Rain = 0
KST1 211845Z 18021G26KT 17/M01 A2992 RMK A01 T01711014  RH  028%=      5-min Rain = 0
KST1 211850Z 19018G25KT 17/M02 A2992 RMK A01 T01731015  RH  028%=      5-min Rain = 0
KST1 211855Z 19018G23KT 17/M02 A2992 RMK A01 T01741015  RH  028%=      5-min Rain = 0
KST1 211900Z 18018G23KT 18/M01 A2991 RMK A01 T01761014  RH  028%=      5-min Rain = 0
KST1 211905Z 19018G24KT 18/M02 A2991 RMK A01 T01761017  RH  027%=      5-min Rain = 0
KST1 211910Z 19020G25KT 18/M02 A299 RMK A01 T01771019  RH  026%=      5-min Rain = 0
KST1 211915Z 19020G27KT 18/M02 A299 RMK A01 T01811016  RH  026%=      5-min Rain = 0
KST1 211920Z 18021G26KT 18/M02 A2989 RMK A01 T01821015  RH  026%=      5-min Rain = 0
KST1 211925Z 18021G26KT 18/M02 A2989 RMK A01 T01831016  RH  026%=      5-min Rain = 0
KST1 211930Z 18020KT 19/M02 A2988 RMK A01 T01891017  RH  025%=      5-min Rain = 0
KST1 211935Z 19020KT 19/M02 A2988 RMK A01 T01851016  RH  026%=      5-min Rain = 0
KST1 211940Z 18021G26KT 19/M02 A2988 RMK A01 T01881016  RH  025%=      5-min Rain = 0
KST1 211945Z 18022KT 19/M02 A2987 RMK A01 T01901016  RH  025%=      5-min Rain = 0
KST1 211950Z 18020KT 19/M02 A2987 RMK A01 T01921016  RH  025%=      5-min Rain = 0
KST1 211955Z 18020KT 19/M02 A2987 RMK A01 T01931015  RH  025%=      5-min Rain = 0
KST1 212000Z 18020G26KT 19/M02 A2986 RMK A01 T01941015  RH  025%=      5-min Rain = 0
KST1 212005Z 18019G27KT 20/M02 A2986 RMK A01 T01971015  RH  024%=      5-min Rain = 0
KST1 212010Z 19022KT 19/M02 A2985 RMK A01 T01931024  RH  023%=      5-min Rain = 0
KST1 212015Z 19021G27KT 19/M03 A2985 RMK A01 T01881025  RH  024%=      5-min Rain = 0
KST1 212020Z 18021G26KT 19/M02 A2985 RMK A01 T01881023  RH  024%=      5-min Rain = 0
KST1 212025Z 19020G25KT 19/M02 A2984 RMK A01 T01871022  RH  024%=      5-min Rain = 0
KST1 212030Z 18021KT 19/M02 A2984 RMK A01 T01911020  RH  024%=      5-min Rain = 0
KST1 212035Z 18021G26KT 19/M02 A2984 RMK A01 T01901021  RH  024%=      5-min Rain = 0
KST1 212040Z 18020G26KT 19/M02 A2983 RMK A01 T01911019  RH  024%=      5-min Rain = 0
KST1 212045Z 18023KT 19/M02 A2982 RMK A01 T01931021  RH  024%=      5-min Rain = 0
KST1 212050Z 18021KT 19/M02 A2982 RMK A01 T01931020  RH  024%=      5-min Rain = 0
KST1 212055Z 18020G26KT 19/M02 A2982 RMK A01 T01931020  RH  024%=      5-min Rain = 0
KST1 212100Z 17022G27KT 19/M02 A2982 RMK A01 T01921020  RH  024%=      5-min Rain = 0
KST1 212105Z 18020KT 19/M02 A2982 RMK A01 T01911019  RH  024%=      5-min Rain = 0
KST1 212110Z 18020G25KT 19/M02 A2981 RMK A01 T01931018  RH  024%=      5-min Rain = 0
KST1 212115Z 18020G25KT 19/M02 A2981 RMK A01 T01941018  RH  024%=      5-min Rain = 0
KST1 212120Z 19017G22KT 19/M02 A2981 RMK A01 T01941017  RH  024%=      5-min Rain = 0
KST1 212125Z 18020KT 19/M02 A2981 RMK A01 T01941019  RH  024%=      5-min Rain = 0
KST1 212130Z 18018G24KT 19/M02 A298 RMK A01 T01941015  RH  025%=      5-min Rain = 0
KST1 212135Z 18019G24KT 20/M01 A298 RMK A01 T01971014  RH  024%=      5-min Rain = 0
KST1 212140Z 18019G25KT 20/M02 A298 RMK A01 T01971015  RH  024%=      5-min Rain = 0
KST1 212145Z 18019KT 20/M01 A298 RMK A01 T01951014  RH  025%=      5-min Rain = 0
KST1 212150Z 17020KT 20/M01 A298 RMK A01 T01961011  RH  025%=      5-min Rain = 0
KST1 212155Z 17020G26KT 20/M01 A298 RMK A01 T01971010  RH  025%=      5-min Rain = 0
KST1 212200Z 17019G24KT 20/M01 A298 RMK A01 T01961006  RH  026%=      5-min Rain = 0
KST1 212205Z 17022KT 20/M01 A2979 RMK A01 T01951009  RH  026%=      5-min Rain = 0
KST1 212210Z 17022G27KT 20/M01 A2979 RMK A01 T01961008  RH  026%=      5-min Rain = 0
KST1 212215Z 17023KT 20/M01 A2979 RMK A01 T01971008  RH  026%=      5-min Rain = 0
KST1 212220Z 17023KT 19/M01 A2978 RMK A01 T01941008  RH  026%=      5-min Rain = 0
KST1 212225Z 17020G25KT 19/M01 A2978 RMK A01 T01921005  RH  027%=      5-min Rain = 0
KST1 212230Z 17021KT 19/M01 A2978 RMK A01 T01891005  RH  027%=      5-min Rain = 0
KST1 212235Z 17021G28KT 19/M01 A2978 RMK A01 T01871007  RH  027%=      5-min Rain = 0
KST1 212240Z 17020KT 18/M00 A2978 RMK A01 T01841003  RH  029%=      5-min Rain = 0
KST1 212245Z 16020G25KT 18/M00 A2977 RMK A01 T01831004  RH  029%=      5-min Rain = 0
KST1 212250Z 17020G25KT 18/M00 A2978 RMK A01 T01811004  RH  029%=      5-min Rain = 0
KST1 212255Z 16020KT 18/M00 A2977 RMK A01 T01801003  RH  029%=      5-min Rain = 0
KST1 212300Z 17021G26KT 18/M00 A2977 RMK A01 T01791004  RH  029%=      5-min Rain = 0
KST1 212305Z 17020G26KT 18/M00 A2977 RMK A01 T01791003  RH  030%=      5-min Rain = 0
KST1 212310Z 16020KT 18/M00 A2977 RMK A01 T01781001  RH  030%=      5-min Rain = 0
KST1 212315Z 17020KT 18/M00 A2977 RMK A01 T01781001  RH  030%=      5-min Rain = 0
KST1 212320Z 17018KT 18/00 A2977 RMK A01 T01750001  RH  031%=      5-min Rain = 0
KST1 212325Z 17019G24KT 17/00 A2978 RMK A01 T017300-0  RH  031%=      5-min Rain = 0
KST1 212330Z 17020KT 17/M00 A2978 RMK A01 T01701001  RH  032%=      5-min Rain = 0
KST1 212335Z 17017KT 17/M00 A2978 RMK A01 T01681001  RH  032%=      5-min Rain = 0
KST1 212340Z 17014G19KT 17/00 A2978 RMK A01 T01650001  RH  033%=      5-min Rain = 0
KST1 212345Z 17017G23KT 16/00 A2978 RMK A01 T01630001  RH  034%=      5-min Rain = 0
KST1 212350Z 17020KT 16/00 A2977 RMK A01 T01620000  RH  034%=      5-min Rain = 0
KST1 212355Z 17017KT 16/00 A2978 RMK A01 T01580000  RH  035%=      5-min Rain = 0
KST1 220000Z 17018G23KT 16/00 A2978 RMK A01 T01550001  RH  035%=      5-min Rain = 0
KST1 220005Z 17017G23KT 15/00 A2978 RMK A01 T01530001  RH  036%=      5-min Rain = 0
KST1 220010Z 17016KT 15/00 A2978 RMK A01 T01490002  RH  037%=      5-min Rain = 0
KST1 220015Z 17018G23KT 15/00 A2978 RMK A01 T01460003  RH  038%=      5-min Rain = 0
KST1 220020Z 16016G22KT 14/00 A2978 RMK A01 T01440003  RH  038%=      5-min Rain = 0
KST1 220025Z 16016G22KT 14/00 A2978 RMK A01 T01400003  RH  039%=      5-min Rain = 0
KST1 220030Z 17017G23KT 14/01 A2978 RMK A01 T01380005  RH  040%=      5-min Rain = 0
KST1 220035Z 17020G25KT 14/01 A2978 RMK A01 T01400008  RH  041%=      5-min Rain = 0
KST1 220040Z 17020G26KT 14/01 A2978 RMK A01 T01380009  RH  042%=      5-min Rain = 0
KST1 220045Z 17019G26KT 14/01 A2978 RMK A01 T01350010  RH  043%=      5-min Rain = 0
KST1 220050Z 17018KT 13/01 A2978 RMK A01 T01320011  RH  044%=      5-min Rain = 0
KST1 220055Z 17019G24KT 13/01 A2978 RMK A01 T01320012  RH  045%=      5-min Rain = 0
KST1 220100Z 17019G25KT 13/01 A2978 RMK A01 T01300013  RH  045%=      5-min Rain = 0
KST1 220105Z 17020G25KT 13/01 A2978 RMK A01 T01290014  RH  046%=      5-min Rain = 0
KST1 220110Z 17019G24KT 13/02 A2978 RMK A01 T01280015  RH  047%=      5-min Rain = 0
KST1 220115Z 17018G23KT 13/02 A2978 RMK A01 T01260015  RH  047%=      5-min Rain = 0
KST1 220120Z 17020G25KT 13/02 A2978 RMK A01 T01250015  RH  048%=      5-min Rain = 0
KST1 220125Z 17021KT 13/02 A2978 RMK A01 T01250015  RH  048%=      5-min Rain = 0
KST1 220130Z 17019G25KT 12/02 A2978 RMK A01 T01240015  RH  048%=      5-min Rain = 0
KST1 220135Z 17020G27KT 12/02 A2978 RMK A01 T01240016  RH  048%=      5-min Rain = 0
KST1 220140Z 17019KT 12/02 A2979 RMK A01 T01230016  RH  049%=      5-min Rain = 0
KST1 220145Z 17019KT 12/02 A2979 RMK A01 T01220017  RH  049%=      5-min Rain = 0
KST1 220150Z 17020KT 12/02 A2979 RMK A01 T01220018  RH  049%=      5-min Rain = 0
KST1 220155Z 17018G24KT 12/02 A2979 RMK A01 T01210018  RH  050%=      5-min Rain = 0
KST1 220200Z 17018G24KT 12/02 A2979 RMK A01 T01200019  RH  051%=      5-min Rain = 0
KST1 220205Z 17018G23KT 12/02 A2979 RMK A01 T01200021  RH  051%=      5-min Rain = 0
KST1 220210Z 17018KT 12/02 A2979 RMK A01 T01190022  RH  052%=      5-min Rain = 0
KST1 220215Z 17018G23KT 12/02 A2979 RMK A01 T01190023  RH  053%=      5-min Rain = 0
KST1 220220Z 17019KT 12/02 A2978 RMK A01 T01190024  RH  053%=      5-min Rain = 0
KST1 220225Z 17019G24KT 12/03 A2978 RMK A01 T01180025  RH  053%=      5-min Rain = 0
KST1 220230Z 17020G26KT 12/03 A2978 RMK A01 T01190026  RH  054%=      5-min Rain = 0
KST1 220235Z 17020G26KT 12/03 A2978 RMK A01 T01190027  RH  054%=      5-min Rain = 0
KST1 220240Z 17020G25KT 12/03 A2978 RMK A01 T01190029  RH  055%=      5-min Rain = 0
KST1 220245Z 17021G26KT 12/03 A2978 RMK A01 T01180030  RH  055%=      5-min Rain = 0
KST1 220250Z 17021KT 12/03 A2978 RMK A01 T01190032  RH  056%=      5-min Rain = 0
KST1 220255Z 17020G26KT 12/03 A2978 RMK A01 T01180033  RH  057%=      5-min Rain = 0
KST1 220300Z 17019G24KT 12/04 A2978 RMK A01 T01180035  RH  058%=      5-min Rain = 0
KST1 220305Z 17020G27KT 12/04 A2978 RMK A01 T01180037  RH  058%=      5-min Rain = 0
KST1 220310Z 17020G25KT 12/04 A2978 RMK A01 T01180039  RH  059%=      5-min Rain = 0
KST1 220315Z 17019G25KT 12/04 A2978 RMK A01 T01170040  RH  060%=      5-min Rain = 0
KST1 220320Z 17019KT 12/04 A2978 RMK A01 T01160041  RH  061%=      5-min Rain = 0
KST1 220325Z 17019G25KT 12/04 A2978 RMK A01 T01160043  RH  062%=      5-min Rain = 0
KST1 220330Z 17019G25KT 12/04 A2978 RMK A01 T01150044  RH  062%=      5-min Rain = 0
KST1 220335Z 17018G24KT 12/05 A2978 RMK A01 T01150045  RH  063%=      5-min Rain = 0
KST1 220340Z 17020KT 12/05 A2978 RMK A01 T01160047  RH  064%=      5-min Rain = 0
KST1 220345Z 17019KT 12/05 A2977 RMK A01 T01160049  RH  064%=      5-min Rain = 0
KST1 220350Z 17018G24KT 12/05 A2977 RMK A01 T01150051  RH  065%=      5-min Rain = 0
KST1 220355Z 17020KT 12/05 A2977 RMK A01 T01160052  RH  066%=      5-min Rain = 0
KST1 220400Z 17019G24KT 12/05 A2976 RMK A01 T01160054  RH  066%=      5-min Rain = 0
KST1 220405Z 17019G26KT 12/05 A2976 RMK A01 T01150054  RH  067%=      5-min Rain = 0
KST1 220410Z 17019KT 12/06 A2976 RMK A01 T01160056  RH  067%=      5-min Rain = 0
KST1 220415Z 17020G27KT 12/06 A2976 RMK A01 T01160057  RH  068%=      5-min Rain = 0
KST1 220420Z 17021G27KT 12/06 A2976 RMK A01 T01170058  RH  068%=      5-min Rain = 0
KST1 220425Z 17022G28KT 12/06 A2976 RMK A01 T01180060  RH  068%=      5-min Rain = 0
KST1 220430Z 17021G27KT 12/06 A2975 RMK A01 T01180060  RH  068%=      5-min Rain = 0
KST1 220435Z 17020G25KT 12/06 A2976 RMK A01 T01180061  RH  069%=      5-min Rain = 0
KST1 220440Z 17021G28KT 12/06 A2976 RMK A01 T01190061  RH  069%=      5-min Rain = 0
KST1 220445Z 17021G27KT 12/06 A2976 RMK A01 T01190062  RH  069%=      5-min Rain = 0
KST1 220450Z 17020G25KT 12/06 A2975 RMK A01 T01190062  RH  069%=      5-min Rain = 0
KST1 220455Z 17019G24KT 12/06 A2975 RMK A01 T01190062  RH  069%=      5-min Rain = 0
KST1 220500Z 18021G28KT 12/06 A2975 RMK A01 T01190062  RH  069%=      5-min Rain = 0
KST1 220505Z 18022G28KT 12/06 A2975 RMK A01 T01190062  RH  069%=      5-min Rain = 0
KST1 220510Z 18022G27KT 12/06 A2974 RMK A01 T01190062  RH  069%=      5-min Rain = 0
KST1 220515Z 18023G28KT 12/06 A2974 RMK A01 T01190062  RH  069%=      5-min Rain = 0
KST1 220520Z 18023G30KT 12/06 A2974 RMK A01 T01190062  RH  069%=      5-min Rain = 0
KST1 220525Z 18023G29KT 12/06 A2973 RMK A01 T01190062  RH  069%=      5-min Rain = 0
KST1 220530Z 18025G31KT 12/06 A2973 RMK A01 T01200062  RH  069%=      5-min Rain = 0
KST1 220535Z 18023G30KT 12/06 A2973 RMK A01 T01200062  RH  069%=      5-min Rain = 0
KST1 220540Z 18025G34KT 12/06 A2973 RMK A01 T01210062  RH  068%=      5-min Rain = 0
KST1 220545Z 18025G30KT 12/06 A2973 RMK A01 T01220062  RH  068%=      5-min Rain = 0
KST1 220550Z 18023G30KT 12/06 A2973 RMK A01 T01220062  RH  068%=      5-min Rain = 0
KST1 220555Z 18023G29KT 12/06 A2973 RMK A01 T01220062  RH  068%=      5-min Rain = 0

Page generated in 0.0136 seconds.